Time;durP1;ratioP1;P1;durP2;ratioP2;P2;SDS_P1;SDS_P2;PMS_P1;PMS_P2;Temp;Humidity;BMP_temperature;BMP_pressure;BME280_temperature;BME280_humidity;BME280_pressure;Samples;Min_cycle;Max_cycle;Signal;HPM_P1;HPM_P2
2021/10/12 00:01:22;;;;;;;9.85;2.22;;;13.20;99.90;;;;;;5050320;28;25064;-78
2021/10/12 00:03:48;;;;;;;12.55;2.60;;;13.10;99.90;;;;;;5046015;28;25114;-76
2021/10/12 00:06:14;;;;;;;8.68;2.50;;;13.10;99.90;;;;;;5033765;28;25062;-77
2021/10/12 00:08:40;;;;;;;7.05;2.05;;;13.00;99.90;;;;;;5050199;28;25081;-77
2021/10/12 00:11:06;;;;;;;14.55;2.90;;;13.00;99.90;;;;;;5035492;28;25078;-76
2021/10/12 00:13:33;;;;;;;14.57;2.45;;;13.10;99.90;;;;;;5047909;28;25163;-78
2021/10/12 00:15:58;;;;;;;14.55;2.55;;;13.10;99.90;;;;;;5055818;28;25056;-78
2021/10/12 00:18:24;;;;;;;8.15;2.67;;;13.20;99.90;;;;;;5049597;28;25070;-76
2021/10/12 00:20:50;;;;;;;9.45;2.42;;;13.10;99.90;;;;;;5052911;28;25072;-75
2021/10/12 00:23:15;;;;;;;12.85;4.07;;;13.00;99.90;;;;;;5036833;28;25049;-77
2021/10/12 00:25:41;;;;;;;7.95;2.40;;;12.90;99.90;;;;;;5059759;28;25055;-74
2021/10/12 00:28:06;;;;;;;6.57;2.00;;;12.80;99.90;;;;;;5060766;28;25098;-76
2021/10/12 00:30:32;;;;;;;8.07;2.50;;;12.90;99.90;;;;;;5051246;28;25082;-77
2021/10/12 00:32:57;;;;;;;7.82;2.20;;;12.90;99.90;;;;;;5048206;28;25093;-78
2021/10/12 00:35:23;;;;;;;16.13;2.95;;;12.90;99.90;;;;;;5050977;28;25063;-78
2021/10/12 00:37:49;;;;;;;12.75;2.80;;;12.90;99.90;;;;;;5054957;28;25078;-77
2021/10/12 00:40:14;;;;;;;12.30;3.25;;;12.90;99.90;;;;;;5051385;28;25130;-77
2021/10/12 00:42:40;;;;;;;15.82;2.97;;;12.80;99.90;;;;;;5052109;28;25165;-77
2021/10/12 00:45:09;;;;;;;11.77;2.60;;;12.80;99.90;;;;;;5053002;28;25162;-76
2021/10/12 00:47:34;;;;;;;12.85;2.38;;;12.80;99.90;;;;;;5048399;28;25062;-76
2021/10/12 00:50:00;;;;;;;14.27;2.88;;;12.90;99.90;;;;;;5052677;28;25072;-76
2021/10/12 00:52:26;;;;;;;12.82;2.58;;;12.80;99.90;;;;;;5059254;28;25094;-76
2021/10/12 00:54:52;;;;;;;12.05;2.40;;;12.80;99.90;;;;;;5055756;28;25073;-75
2021/10/12 00:57:18;;;;;;;19.25;3.30;;;12.50;99.90;;;;;;5061197;28;25106;-77
2021/10/12 00:59:44;;;;;;;8.00;2.88;;;12.40;99.90;;;;;;5065618;28;25050;-75
2021/10/12 01:02:09;;;;;;;11.88;2.60;;;12.10;99.90;;;;;;5074378;28;25073;-75
2021/10/12 01:04:38;;;;;;;16.83;3.30;;;12.10;99.90;;;;;;5075047;28;25106;-74
2021/10/12 01:07:04;;;;;;;8.60;2.25;;;11.90;99.90;;;;;;5062600;28;25098;-73
2021/10/12 01:09:30;;;;;;;11.00;2.38;;;11.80;99.90;;;;;;5051475;28;25074;-74
2021/10/12 01:11:55;;;;;;;10.50;2.10;;;11.70;99.90;;;;;;5033950;28;25151;-74
2021/10/12 01:14:21;;;;;;;9.88;2.22;;;11.70;99.90;;;;;;5055627;28;25068;-76
2021/10/12 01:16:47;;;;;;;8.80;2.05;;;11.60;99.90;;;;;;5051876;28;25074;-75
2021/10/12 01:19:16;;;;;;;10.50;2.05;;;11.60;99.90;;;;;;5034152;28;25147;-72
2021/10/12 01:21:44;;;;;;;14.32;2.60;;;11.60;99.90;;;;;;5039596;28;25090;-74
2021/10/12 01:24:10;;;;;;;9.68;1.85;;;11.50;99.90;;;;;;5039911;28;25139;-71
2021/10/12 01:26:37;;;;;;;12.65;2.40;;;11.50;99.90;;;;;;5052256;28;25082;-75
2021/10/12 01:29:03;;;;;;;9.15;1.95;;;11.40;99.90;;;;;;5046881;28;25071;-74
2021/10/12 01:31:29;;;;;;;14.15;4.30;;;11.40;99.90;;;;;;5045414;28;25099;-75
2021/10/12 01:33:55;;;;;;;11.02;1.95;;;11.40;99.90;;;;;;5051530;28;25089;-76
2021/10/12 01:36:22;;;;;;;12.20;1.98;;;11.30;99.90;;;;;;5052617;28;25118;-76
2021/10/12 01:38:48;;;;;;;8.88;2.10;;;11.30;99.90;;;;;;5046968;28;25063;-75
2021/10/12 01:41:14;;;;;;;8.57;1.88;;;11.20;99.90;;;;;;5035925;28;25070;-75
2021/10/12 01:43:39;;;;;;;12.93;2.60;;;11.20;99.90;;;;;;5052014;28;25073;-77
2021/10/12 01:46:06;;;;;;;9.13;2.55;;;11.20;99.90;;;;;;5049307;28;25074;-76
2021/10/12 01:48:36;;;;;;;7.47;1.67;;;11.30;99.90;;;;;;5044260;28;25093;-75
2021/10/12 01:51:03;;;;;;;12.20;2.33;;;11.30;99.90;;;;;;5056152;28;25079;-76
2021/10/12 01:53:30;;;;;;;6.82;1.83;;;11.40;99.90;;;;;;5037372;28;25063;-75
2021/10/12 01:55:56;;;;;;;6.40;2.05;;;11.40;99.90;;;;;;5051813;28;25075;-76
2021/10/12 01:58:23;;;;;;;11.32;1.98;;;11.50;99.90;;;;;;5027816;28;25074;-76
2021/10/12 02:00:49;;;;;;;5.50;1.63;;;11.60;99.90;;;;;;5043993;28;25088;-76
2021/10/12 02:03:14;;;;;;;13.25;2.50;;;11.70;99.90;;;;;;5053884;28;25095;-77
2021/10/12 02:05:40;;;;;;;10.40;2.40;;;11.70;99.90;;;;;;5048395;28;25111;-77
2021/10/12 02:08:06;;;;;;;11.85;2.17;;;11.80;99.90;;;;;;5050398;28;25067;-78
2021/10/12 02:10:31;;;;;;;9.65;2.78;;;11.80;99.90;;;;;;5051397;28;25065;-76
2021/10/12 02:12:57;;;;;;;5.30;1.98;;;11.90;99.90;;;;;;5051067;28;25074;-74
2021/10/12 02:15:23;;;;;;;9.30;2.60;;;11.70;99.90;;;;;;5046960;28;25056;-77
2021/10/12 02:17:49;;;;;;;8.77;2.10;;;11.80;99.90;;;;;;5048171;28;25131;-76
2021/10/12 02:20:15;;;;;;;8.27;1.75;;;11.80;99.90;;;;;;5010473;28;25055;-77
2021/10/12 02:22:41;;;;;;;8.75;2.35;;;11.70;99.90;;;;;;5043403;28;25064;-79
2021/10/12 02:25:08;;;;;;;7.35;2.08;;;11.80;99.90;;;;;;5046931;28;25054;-78
2021/10/12 02:27:34;;;;;;;9.52;1.95;;;11.80;99.90;;;;;;5046578;28;25088;-76
2021/10/12 02:30:00;;;;;;;11.57;2.75;;;11.70;99.90;;;;;;5047825;28;25091;-77
2021/10/12 02:32:26;;;;;;;7.40;1.80;;;11.70;99.90;;;;;;5048648;28;25072;-76
2021/10/12 02:34:52;;;;;;;5.93;2.20;;;11.70;99.90;;;;;;5049707;28;25060;-78
2021/10/12 02:37:23;;;;;;;7.97;2.00;;;11.60;99.90;;;;;;5055350;28;25071;-76
2021/10/12 02:39:49;;;;;;;7.93;1.88;;;11.60;99.90;;;;;;5054626;28;25067;-78
2021/10/12 02:42:15;;;;;;;15.10;3.53;;;11.60;99.90;;;;;;5030834;28;25110;-75
2021/10/12 02:44:40;;;;;;;10.68;3.35;;;11.60;99.90;;;;;;5029366;28;25091;-76
2021/10/12 02:47:06;;;;;;;11.38;2.15;;;11.60;99.90;;;;;;5044603;28;25095;-77
2021/10/12 02:49:31;;;;;;;7.45;2.13;;;11.60;99.90;;;;;;5057418;28;25041;-77
2021/10/12 02:51:57;;;;;;;9.95;2.30;;;11.60;99.90;;;;;;5049617;28;25079;-79
2021/10/12 02:54:23;;;;;;;11.80;2.70;;;11.60;99.90;;;;;;5030622;28;25158;-77
2021/10/12 02:56:48;;;;;;;12.05;2.50;;;11.50;99.90;;;;;;5053802;28;25089;-78
2021/10/12 02:59:14;;;;;;;13.20;2.58;;;11.50;99.90;;;;;;5050623;28;25066;-77
2021/10/12 03:01:40;;;;;;;15.40;2.70;;;11.40;99.90;;;;;;5051218;28;25122;-78
2021/10/12 03:04:05;;;;;;;11.43;2.80;;;11.40;99.90;;;;;;5049366;28;25058;-76
2021/10/12 03:06:31;;;;;;;10.82;2.60;;;11.50;99.90;;;;;;5047158;28;25117;-77
2021/10/12 03:08:57;;;;;;;9.93;2.88;;;11.50;99.90;;;;;;5028309;28;25138;-77
2021/10/12 03:11:23;;;;;;;11.38;3.65;;;11.60;99.90;;;;;;5029272;28;25166;-78
2021/10/12 03:13:48;;;;;;;10.18;3.25;;;11.70;99.90;;;;;;5046858;28;25049;-75
2021/10/12 03:16:14;;;;;;;10.55;2.85;;;11.70;99.90;;;;;;5042540;28;25099;-77
2021/10/12 03:18:40;;;;;;;10.00;2.67;;;11.80;99.90;;;;;;5047390;28;25164;-76
2021/10/12 03:21:06;;;;;;;11.02;3.20;;;11.70;99.90;;;;;;5046949;28;25171;-76
2021/10/12 03:23:33;;;;;;;8.45;3.15;;;11.80;99.90;;;;;;5030570;28;25120;-77
2021/10/12 03:25:59;;;;;;;9.32;2.80;;;11.80;99.90;;;;;;5044107;28;25082;-75
2021/10/12 03:28:24;;;;;;;12.50;3.63;;;11.90;99.90;;;;;;5047387;28;25061;-76
2021/10/12 03:30:50;;;;;;;9.05;2.90;;;11.80;99.90;;;;;;5031772;28;25063;-76
2021/10/12 03:33:19;;;;;;;9.90;3.08;;;11.80;99.90;;;;;;5049625;28;25063;-77
2021/10/12 03:35:50;;;;;;;8.23;3.08;;;11.80;99.90;;;;;;5050190;28;25131;-77
2021/10/12 03:38:15;;;;;;;8.90;3.28;;;11.90;99.90;;;;;;5050412;28;25143;-77
2021/10/12 03:40:42;;;;;;;11.80;3.95;;;11.90;99.90;;;;;;5046442;28;25079;-76
2021/10/12 03:43:07;;;;;;;6.45;2.83;;;11.90;99.90;;;;;;5050477;28;25065;-76
2021/10/12 03:45:33;;;;;;;10.68;3.40;;;11.90;99.90;;;;;;5022561;28;25085;-76
2021/10/12 03:47:59;;;;;;;11.77;4.03;;;11.70;99.90;;;;;;5043396;28;25060;-76
2021/10/12 03:50:24;;;;;;;10.98;3.45;;;11.70;99.90;;;;;;5021151;28;25075;-74
2021/10/12 03:52:50;;;;;;;13.80;3.35;;;11.70;99.90;;;;;;5045767;28;25129;-76
2021/10/12 03:55:15;;;;;;;12.38;3.92;;;11.70;99.90;;;;;;5040692;28;25065;-75
2021/10/12 03:57:41;;;;;;;12.85;3.85;;;11.70;99.90;;;;;;5055997;28;25053;-76
2021/10/12 04:00:08;;;;;;;12.23;3.47;;;11.80;99.90;;;;;;5029788;28;25060;-76
2021/10/12 04:02:33;;;;;;;12.43;4.07;;;11.90;99.90;;;;;;5044810;28;25049;-74
2021/10/12 04:04:59;;;;;;;11.27;4.00;;;11.90;99.90;;;;;;5050008;28;25094;-75
2021/10/12 04:07:25;;;;;;;16.13;4.80;;;11.90;99.90;;;;;;5031700;28;25189;-76
2021/10/12 04:09:50;;;;;;;16.98;4.80;;;11.80;99.90;;;;;;5055588;28;25158;-77
2021/10/12 04:12:16;;;;;;;12.45;4.35;;;11.70;99.90;;;;;;5052549;28;25063;-76
2021/10/12 04:14:42;;;;;;;15.32;4.90;;;11.80;99.90;;;;;;5054527;28;25092;-77
2021/10/12 04:17:07;;;;;;;18.52;5.47;;;11.90;99.90;;;;;;5058795;28;25102;-75
2021/10/12 04:19:33;;;;;;;11.93;4.57;;;11.90;99.90;;;;;;5053540;28;25143;-75
2021/10/12 04:21:59;;;;;;;15.07;5.30;;;12.00;99.90;;;;;;5058994;28;25054;-76
2021/10/12 04:24:25;;;;;;;13.43;6.07;;;11.80;99.90;;;;;;5050106;28;25056;-78
2021/10/12 04:26:51;;;;;;;16.08;5.32;;;11.80;99.90;;;;;;5033163;28;25109;-77
2021/10/12 04:29:16;;;;;;;12.10;4.60;;;11.90;99.90;;;;;;5047875;28;25087;-75
2021/10/12 04:31:42;;;;;;;17.17;5.68;;;11.90;99.90;;;;;;5048786;28;25060;-75
2021/10/12 04:34:08;;;;;;;16.38;5.75;;;12.00;99.90;;;;;;5027724;28;25072;-76
2021/10/12 04:36:34;;;;;;;14.65;5.68;;;12.00;99.90;;;;;;5043954;28;25196;-74
2021/10/12 04:38:59;;;;;;;15.88;6.43;;;12.10;99.90;;;;;;5045848;28;25072;-74
2021/10/12 04:41:25;;;;;;;17.02;5.75;;;12.00;99.90;;;;;;5040557;28;25095;-73
2021/10/12 04:43:51;;;;;;;20.05;7.15;;;12.00;99.90;;;;;;5040340;28;25096;-71
2021/10/12 04:46:18;;;;;;;14.25;6.20;;;11.90;99.90;;;;;;5047590;28;25110;-70
2021/10/12 04:48:43;;;;;;;20.02;5.43;;;11.80;99.90;;;;;;5048833;28;25057;-71
2021/10/12 04:51:09;;;;;;;16.75;6.57;;;11.80;99.90;;;;;;5050681;28;25135;-69
2021/10/12 04:53:35;;;;;;;13.15;5.75;;;11.80;99.90;;;;;;5056907;28;25158;-70
2021/10/12 04:56:01;;;;;;;15.70;6.32;;;11.80;99.90;;;;;;5047297;28;25079;-69
2021/10/12 04:58:26;;;;;;;18.13;6.53;;;11.90;99.90;;;;;;5051447;28;25172;-70
2021/10/12 05:00:52;;;;;;;17.75;6.35;;;11.90;99.90;;;;;;5040365;28;25066;-71
2021/10/12 05:03:18;;;;;;;18.25;6.90;;;12.10;99.90;;;;;;5038591;28;25096;-71
2021/10/12 05:05:43;;;;;;;15.05;6.65;;;12.10;99.90;;;;;;5037545;28;25079;-70
2021/10/12 05:08:09;;;;;;;13.13;6.47;;;12.00;99.90;;;;;;5034642;28;25163;-68
2021/10/12 05:10:34;;;;;;;14.50;6.30;;;12.00;99.90;;;;;;5045588;28;25078;-70
2021/10/12 05:13:00;;;;;;;13.13;6.90;;;12.10;99.90;;;;;;5045947;28;25070;-71
2021/10/12 05:15:27;;;;;;;14.05;6.40;;;12.00;99.90;;;;;;5046377;28;25103;-70
2021/10/12 05:17:53;;;;;;;15.60;5.72;;;12.00;99.90;;;;;;5043008;28;25093;-70
2021/10/12 05:20:19;;;;;;;18.10;7.18;;;12.00;99.90;;;;;;5054929;28;25100;-70
2021/10/12 05:22:46;;;;;;;15.98;7.68;;;12.00;99.90;;;;;;5046462;28;25138;-69
2021/10/12 05:25:11;;;;;;;14.02;7.15;;;11.90;99.90;;;;;;5043189;28;25070;-71
2021/10/12 05:27:38;;;;;;;18.45;7.25;;;11.90;99.90;;;;;;5035272;28;25133;-69
2021/10/12 05:30:05;;;;;;;19.27;9.43;;;11.90;99.90;;;;;;5021400;28;25040;-68
2021/10/12 05:32:31;;;;;;;19.50;9.75;;;11.90;99.90;;;;;;5038941;28;25073;-67
2021/10/12 05:34:58;;;;;;;20.30;10.63;;;11.80;99.90;;;;;;5037891;28;25072;-69
2021/10/12 05:37:24;;;;;;;20.83;10.57;;;11.70;99.90;;;;;;5034810;28;25066;-68
2021/10/12 05:39:49;;;;;;;24.02;10.52;;;11.80;99.90;;;;;;5036053;28;25054;-69
2021/10/12 05:42:15;;;;;;;25.20;11.00;;;11.90;99.90;;;;;;5040372;28;25129;-69
2021/10/12 05:44:41;;;;;;;22.30;10.52;;;11.90;99.90;;;;;;5042279;28;25076;-69
2021/10/12 05:47:06;;;;;;;22.63;10.40;;;12.00;99.90;;;;;;5030225;28;25071;-69
2021/10/12 05:49:32;;;;;;;22.42;9.10;;;12.00;99.90;;;;;;5038731;28;24886;-69
2021/10/12 05:52:00;;;;;;;16.50;8.65;;;11.90;99.90;;;;;;5031259;28;25058;-69
2021/10/12 05:54:29;;;;;;;20.83;6.95;;;11.90;99.90;;;;;;5038623;28;25099;-70
2021/10/12 05:57:05;;;;;;;23.35;8.48;;;11.80;99.90;;;;;;5036546;28;25165;-70
2021/10/12 05:59:32;;;;;;;20.85;6.97;;;11.80;99.90;;;;;;5032568;28;25106;-69
2021/10/12 06:01:58;;;;;;;16.00;7.20;;;11.80;99.90;;;;;;5034281;28;25107;-68
2021/10/12 06:04:24;;;;;;;18.88;6.78;;;12.00;99.90;;;;;;5035815;28;25081;-69
2021/10/12 06:06:50;;;;;;;13.55;6.47;;;12.00;99.90;;;;;;5037655;28;25076;-69
2021/10/12 06:09:15;;;;;;;18.60;7.20;;;12.10;99.90;;;;;;5035711;28;25060;-70
2021/10/12 06:11:41;;;;;;;20.88;6.20;;;12.00;99.90;;;;;;5036743;28;25132;-68
2021/10/12 06:14:06;;;;;;;20.55;6.72;;;12.10;99.90;;;;;;5033693;28;25068;-70
2021/10/12 06:16:32;;;;;;;20.58;7.07;;;12.10;99.90;;;;;;5037059;28;25066;-69
2021/10/12 06:18:57;;;;;;;19.52;7.82;;;12.10;99.90;;;;;;5039604;28;25067;-70
2021/10/12 06:21:23;;;;;;;27.98;7.93;;;12.10;99.90;;;;;;5042470;28;25057;-68
2021/10/12 06:23:49;;;;;;;17.13;7.55;;;12.20;99.90;;;;;;5044217;28;25053;-67
2021/10/12 06:26:14;;;;;;;21.92;7.43;;;12.20;99.90;;;;;;5036670;28;25066;-67
2021/10/12 06:28:40;;;;;;;22.05;7.50;;;12.30;99.90;;;;;;5048444;28;25070;-69
2021/10/12 06:31:06;;;;;;;17.92;7.85;;;12.30;99.90;;;;;;5026806;28;25158;-68
2021/10/12 06:33:33;;;;;;;28.00;8.63;;;12.30;99.90;;;;;;5045970;28;25128;-68
2021/10/12 06:35:58;;;;;;;17.80;6.53;;;12.30;99.90;;;;;;5037035;28;25127;-69
2021/10/12 06:38:24;;;;;;;21.10;7.40;;;12.30;99.90;;;;;;5042517;28;25079;-69
2021/10/12 06:40:49;;;;;;;23.30;7.55;;;12.40;99.90;;;;;;5039619;28;25072;-68
2021/10/12 06:43:15;;;;;;;17.08;8.00;;;12.30;99.90;;;;;;5047992;28;25062;-68
2021/10/12 06:45:40;;;;;;;18.52;6.90;;;12.40;99.90;;;;;;5032693;28;25112;-68
2021/10/12 06:48:06;;;;;;;22.70;9.23;;;12.50;99.90;;;;;;5018269;28;25136;-66
2021/10/12 06:50:32;;;;;;;26.30;7.32;;;12.40;99.90;;;;;;5039983;28;25113;-69
2021/10/12 06:52:57;;;;;;;23.92;7.05;;;12.50;99.90;;;;;;5045196;28;25114;-68
2021/10/12 06:55:23;;;;;;;22.27;7.55;;;12.50;99.90;;;;;;5044449;28;25090;-68
2021/10/12 06:57:49;;;;;;;14.98;5.78;;;12.50;99.90;;;;;;5043570;28;25107;-69
2021/10/12 07:00:16;;;;;;;21.15;6.95;;;12.50;99.90;;;;;;5040122;28;25073;-68
2021/10/12 07:02:43;;;;;;;26.58;7.32;;;12.50;99.90;;;;;;5042763;28;25085;-69
2021/10/12 07:05:09;;;;;;;19.33;6.63;;;12.30;99.90;;;;;;5039421;28;25049;-69
2021/10/12 07:07:35;;;;;;;27.85;6.20;;;12.30;99.90;;;;;;5037161;28;25074;-68
2021/10/12 07:10:02;;;;;;;20.35;4.90;;;12.20;99.90;;;;;;5038087;28;25062;-68
2021/10/12 07:12:28;;;;;;;14.98;4.88;;;12.20;99.90;;;;;;5045533;28;25059;-68
2021/10/12 07:14:54;;;;;;;25.63;5.20;;;12.10;99.90;;;;;;5035692;28;25145;-68
2021/10/12 07:17:19;;;;;;;15.25;3.92;;;12.10;99.90;;;;;;5042825;28;25102;-68
2021/10/12 07:19:45;;;;;;;20.02;5.32;;;12.20;99.90;;;;;;5038129;28;25078;-67
2021/10/12 07:22:10;;;;;;;18.30;4.60;;;12.10;99.90;;;;;;5040189;28;25149;-68
2021/10/12 07:24:36;;;;;;;23.48;4.55;;;12.20;99.90;;;;;;5037622;28;25058;-67
2021/10/12 07:27:02;;;;;;;21.80;4.32;;;12.20;99.90;;;;;;5033585;28;25082;-68
2021/10/12 07:29:28;;;;;;;24.63;5.18;;;12.30;99.90;;;;;;5040929;28;25072;-69
2021/10/12 07:31:53;;;;;;;18.75;4.03;;;12.30;99.90;;;;;;5038325;28;25068;-66
2021/10/12 07:34:19;;;;;;;19.02;4.90;;;12.40;99.90;;;;;;5034388;28;25064;-69
2021/10/12 07:36:45;;;;;;;20.70;5.25;;;12.50;99.90;;;;;;5040927;28;25124;-68
2021/10/12 07:39:10;;;;;;;29.25;6.78;;;12.60;99.90;;;;;;5034061;28;25125;-69
2021/10/12 07:41:37;;;;;;;23.83;4.82;;;12.50;99.90;;;;;;5040202;28;25107;-69
2021/10/12 07:44:04;;;;;;;22.35;4.43;;;12.40;99.90;;;;;;5044335;28;25081;-69
2021/10/12 07:46:30;;;;;;;19.38;3.92;;;12.30;99.90;;;;;;5034834;28;25064;-68
2021/10/12 07:48:58;;;;;;;16.38;3.97;;;12.30;99.90;;;;;;5037343;28;25068;-67
2021/10/12 07:51:25;;;;;;;22.15;4.28;;;12.30;99.90;;;;;;5035960;28;25055;-69
2021/10/12 07:53:51;;;;;;;13.73;4.75;;;12.30;99.90;;;;;;5034696;28;25068;-68
2021/10/12 07:56:27;;;;;;;14.98;4.70;;;12.40;99.90;;;;;;5040014;28;25087;-68
2021/10/12 07:58:53;;;;;;;15.80;4.05;;;12.50;99.90;;;;;;5038919;28;25129;-67
2021/10/12 08:01:18;;;;;;;19.52;3.75;;;12.40;99.90;;;;;;5037558;28;25076;-68
2021/10/12 08:03:45;;;;;;;18.90;3.58;;;12.50;99.90;;;;;;5037182;28;25064;-68
2021/10/12 08:06:11;;;;;;;16.15;4.55;;;12.40;99.90;;;;;;5032594;28;25075;-67
2021/10/12 08:08:36;;;;;;;17.40;6.35;;;12.40;99.90;;;;;;5020998;28;25114;-69
2021/10/12 08:11:04;;;;;;;17.90;5.40;;;12.50;99.90;;;;;;5050692;28;25103;-69
2021/10/12 08:13:29;;;;;;;15.27;3.78;;;12.50;99.90;;;;;;5041752;28;25058;-68
2021/10/12 08:16:01;;;;;;;14.25;3.95;;;12.60;99.90;;;;;;5034094;28;25070;-68
2021/10/12 08:18:26;;;;;;;15.68;5.22;;;12.70;99.90;;;;;;5037514;28;25102;-69
2021/10/12 08:20:52;;;;;;;16.10;3.60;;;12.80;99.90;;;;;;5044092;28;25101;-67
2021/10/12 08:23:17;;;;;;;15.57;4.63;;;13.00;99.90;;;;;;5047255;28;25066;-66
2021/10/12 08:25:43;;;;;;;19.85;4.40;;;13.20;99.90;;;;;;5039979;28;25074;-69
2021/10/12 08:28:09;;;;;;;16.15;4.55;;;13.30;99.90;;;;;;5042272;28;25108;-69
2021/10/12 08:30:34;;;;;;;20.52;4.35;;;13.50;99.90;;;;;;5043673;28;25099;-67
2021/10/12 08:33:00;;;;;;;26.88;6.15;;;13.60;99.90;;;;;;5041993;28;25085;-68
2021/10/12 08:35:25;;;;;;;14.90;4.25;;;13.80;99.90;;;;;;5039111;28;25086;-68
2021/10/12 08:37:51;;;;;;;17.55;5.68;;;13.90;99.90;;;;;;5040795;28;25152;-69
2021/10/12 08:40:17;;;;;;;19.17;5.45;;;13.90;99.90;;;;;;5038330;28;25072;-67
2021/10/12 08:42:48;;;;;;;29.73;6.28;;;13.80;99.90;;;;;;5043833;28;25081;-68
2021/10/12 08:45:15;;;;;;;21.98;6.85;;;13.90;99.90;;;;;;5046068;28;25053;-68
2021/10/12 08:47:41;;;;;;;19.35;6.53;;;14.10;99.90;;;;;;5041257;28;25167;-67
2021/10/12 08:50:10;;;;;;;25.92;5.43;;;14.40;99.90;;;;;;5045344;28;25148;-66
2021/10/12 08:52:36;;;;;;;27.42;5.78;;;14.70;99.90;;;;;;5041369;28;25127;-68
2021/10/12 08:55:02;;;;;;;18.52;5.50;;;14.60;99.90;;;;;;5041771;28;25521;-69
2021/10/12 08:57:33;;;;;;;20.38;5.25;;;14.60;99.90;;;;;;5052097;28;25089;-67
2021/10/12 09:00:19;;;;;;;22.10;5.05;;;14.90;99.90;;;;;;5048027;28;25051;-67
2021/10/12 09:05:59;;;;;;;16.98;4.70;;;14.80;99.90;;;;;;5044129;28;25083;-68
2021/10/12 09:08:40;;;;;;;21.98;6.10;;;14.80;99.90;;;;;;5033503;28;25069;-67
2021/10/12 09:11:23;;;;;;;20.45;4.43;;;14.50;99.90;;;;;;5054272;28;25083;-68
2021/10/12 09:13:53;;;;;;;16.83;4.57;;;14.30;99.90;;;;;;5047100;28;25063;-67
2021/10/12 09:16:20;;;;;;;18.75;4.30;;;14.20;99.90;;;;;;5047546;28;25103;-68
2021/10/12 09:18:46;;;;;;;13.07;3.70;;;14.20;99.90;;;;;;5048824;28;25067;-68
2021/10/12 09:21:16;;;;;;;17.10;4.05;;;14.10;99.90;;;;;;5053946;28;25139;-67
2021/10/12 09:23:42;;;;;;;16.05;3.65;;;14.10;99.90;;;;;;5051881;28;25068;-67
2021/10/12 09:26:25;;;;;;;17.38;4.03;;;14.20;99.90;;;;;;5040010;28;25076;-67
2021/10/12 09:29:06;;;;;;;12.75;3.47;;;14.30;99.90;;;;;;5041380;28;25100;-67
2021/10/12 09:31:44;;;;;;;18.00;3.08;;;14.20;99.90;;;;;;5044389;28;25061;-69
2021/10/12 09:34:12;;;;;;;15.48;2.97;;;14.30;99.90;;;;;;5043020;28;25072;-68
2021/10/12 09:36:43;;;;;;;10.80;3.03;;;14.30;99.90;;;;;;5043541;28;25062;-69
2021/10/12 09:39:16;;;;;;;18.65;4.35;;;14.00;99.90;;;;;;5047393;28;25065;-69
2021/10/12 09:41:44;;;;;;;12.55;2.67;;;13.70;99.90;;;;;;5050680;28;25079;-69
2021/10/12 09:44:13;;;;;;;12.52;2.75;;;13.60;99.90;;;;;;5045624;28;25075;-69
2021/10/12 09:46:45;;;;;;;13.85;2.85;;;13.40;99.90;;;;;;5039421;28;24976;-69
2021/10/12 09:49:15;;;;;;;10.67;2.17;;;13.40;99.90;;;;;;5044821;28;25139;-69
2021/10/12 09:52:02;;;;;;;8.00;1.95;;;13.50;99.90;;;;;;5048281;28;25145;-69
2021/10/12 09:54:36;;;;;;;6.97;2.10;;;13.70;99.90;;;;;;5028629;28;25112;-69
2021/10/12 09:57:06;;;;;;;14.77;2.20;;;13.80;99.90;;;;;;5039593;28;25145;-71
2021/10/12 09:59:34;;;;;;;15.05;2.22;;;14.00;99.90;;;;;;5033997;28;25080;-73
2021/10/12 10:02:00;;;;;;;11.70;2.17;;;14.20;99.90;;;;;;5048324;28;25052;-70
2021/10/12 10:04:28;;;;;;;11.65;2.30;;;14.10;99.90;;;;;;5047992;28;25086;-71
2021/10/12 10:07:02;;;;;;;21.55;4.68;;;14.20;99.90;;;;;;5029751;28;25134;-68
2021/10/12 10:09:29;;;;;;;12.88;2.42;;;14.20;99.90;;;;;;5031896;28;25107;-69
2021/10/12 10:11:55;;;;;;;14.43;3.50;;;14.40;99.90;;;;;;5046169;28;25077;-68
2021/10/12 10:14:20;;;;;;;17.98;3.10;;;14.60;99.90;;;;;;5033903;28;25063;-70
2021/10/12 10:16:50;;;;;;;8.70;2.35;;;14.70;99.90;;;;;;5031499;28;25087;-69
2021/10/12 10:19:27;;;;;;;11.95;2.85;;;14.80;99.90;;;;;;5046222;28;25070;-67
2021/10/12 10:21:53;;;;;;;14.98;2.45;;;14.60;99.90;;;;;;5049862;28;25124;-68
2021/10/12 10:24:44;;;;;;;8.80;2.13;;;14.40;99.90;;;;;;5045318;28;25068;-70
2021/10/12 10:27:30;;;;;;;13.00;2.72;;;14.00;99.90;;;;;;5046554;28;25127;-70
2021/10/12 10:30:14;;;;;;;17.38;3.00;;;13.80;99.90;;;;;;5044864;28;25067;-70
2021/10/12 10:32:56;;;;;;;10.23;2.78;;;13.70;99.90;;;;;;5040933;28;25054;-69
2021/10/12 10:35:42;;;;;;;12.75;2.88;;;13.60;99.90;;;;;;5045968;28;25069;-71
2021/10/12 10:38:19;;;;;;;18.98;3.63;;;13.60;99.90;;;;;;5043975;28;25145;-71
2021/10/12 10:41:10;;;;;;;7.45;2.17;;;13.30;99.90;;;;;;5043944;28;25128;-67
2021/10/12 10:43:48;;;;;;;8.40;2.25;;;13.10;99.90;;;;;;5032075;28;25068;-67
2021/10/12 10:46:35;;;;;;;13.35;2.05;;;12.80;99.90;;;;;;5033359;28;25083;-68
2021/10/12 10:49:19;;;;;;;7.57;1.58;;;12.60;99.90;;;;;;5040066;28;25056;-68
2021/10/12 10:52:07;;;;;;;4.72;1.70;;;12.50;99.90;;;;;;5036740;28;25077;-68
2021/10/12 10:54:44;;;;;;;3.03;1.45;;;12.50;99.90;;;;;;5044043;28;25105;-68
2021/10/12 10:57:18;;;;;;;8.95;1.92;;;12.40;99.90;;;;;;5030097;28;25058;-67
2021/10/12 10:59:44;;;;;;;9.38;1.65;;;12.50;99.90;;;;;;5040449;28;25120;-67
2021/10/12 11:02:31;;;;;;;5.90;1.55;;;12.60;99.90;;;;;;5030475;28;25076;-67
2021/10/12 11:04:56;;;;;;;7.18;2.05;;;12.80;99.90;;;;;;5024442;28;25116;-68
2021/10/12 11:07:24;;;;;;;5.47;1.40;;;13.00;99.90;;;;;;5037676;28;25043;-67
2021/10/12 11:09:50;;;;;;;10.50;2.33;;;13.20;99.90;;;;;;5025158;28;25098;-68
2021/10/12 11:12:21;;;;;;;8.68;2.80;;;13.30;99.90;;;;;;5042972;28;25087;-66
2021/10/12 11:14:50;;;;;;;7.53;1.70;;;13.40;99.90;;;;;;5048363;28;25073;-68
2021/10/12 11:17:16;;;;;;;16.13;2.20;;;13.60;99.90;;;;;;5042649;28;25060;-67
2021/10/12 11:19:54;;;;;;;8.68;2.97;;;13.50;99.90;;;;;;5042720;28;25074;-68
2021/10/12 11:22:21;;;;;;;7.97;1.92;;;13.60;99.90;;;;;;5043632;28;25067;-67
2021/10/12 11:24:47;;;;;;;12.20;2.67;;;13.60;99.90;;;;;;5040360;28;25065;-67
2021/10/12 11:27:13;;;;;;;8.63;2.55;;;13.40;99.90;;;;;;5033941;28;25160;-68
2021/10/12 11:29:39;;;;;;;4.95;1.45;;;13.40;99.90;;;;;;5039300;28;25077;-68
2021/10/12 11:32:05;;;;;;;6.35;1.48;;;13.10;99.90;;;;;;5042734;28;25050;-69
2021/10/12 11:34:33;;;;;;;3.63;1.20;;;13.00;99.90;;;;;;5043806;28;25068;-68
2021/10/12 11:37:09;;;;;;;4.00;1.27;;;13.00;99.90;;;;;;5040878;28;25063;-69
2021/10/12 11:39:35;;;;;;;3.50;1.30;;;13.00;99.90;;;;;;5041805;28;25145;-68
2021/10/12 11:42:03;;;;;;;6.00;1.50;;;13.10;99.90;;;;;;5033866;28;25071;-68
2021/10/12 11:44:28;;;;;;;5.45;1.60;;;13.10;99.90;;;;;;5032033;28;25061;-67
2021/10/12 11:47:02;;;;;;;7.28;1.48;;;13.10;99.90;;;;;;5030553;28;25070;-69
2021/10/12 11:49:28;;;;;;;7.45;1.73;;;13.10;99.90;;;;;;5040456;28;25058;-68
2021/10/12 11:51:54;;;;;;;6.97;1.35;;;13.20;99.90;;;;;;5033727;28;25147;-67
2021/10/12 11:54:26;;;;;;;4.15;1.00;;;13.20;99.90;;;;;;5035303;28;25121;-68
2021/10/12 11:56:52;;;;;;;5.32;1.50;;;13.30;99.90;;;;;;5037862;28;25079;-68
2021/10/12 11:59:18;;;;;;;7.40;1.70;;;13.40;99.90;;;;;;5045386;28;25063;-67
2021/10/12 12:01:44;;;;;;;2.63;1.10;;;13.50;99.90;;;;;;5045803;28;25098;-69
2021/10/12 12:04:31;;;;;;;5.82;1.58;;;13.80;99.90;;;;;;5047023;28;25079;-68
2021/10/12 12:07:00;;;;;;;4.35;1.60;;;14.30;99.90;;;;;;5044245;28;25079;-68
2021/10/12 12:09:26;;;;;;;3.47;1.30;;;14.20;99.90;;;;;;5035717;28;25092;-68
2021/10/12 12:11:53;;;;;;;5.25;1.10;;;14.00;99.90;;;;;;5034706;28;25073;-70
2021/10/12 12:14:24;;;;;;;3.83;1.30;;;13.90;99.90;;;;;;5031442;28;25085;-68
2021/10/12 12:17:19;;;;;;;5.18;1.45;;;14.00;99.90;;;;;;5016164;28;25101;-69
2021/10/12 12:19:47;;;;;;;3.97;1.10;;;14.00;99.90;;;;;;5038158;28;25093;-69
2021/10/12 12:22:14;;;;;;;5.85;1.05;;;13.70;99.90;;;;;;5037767;28;25049;-68
2021/10/12 12:24:57;;;;;;;2.28;0.85;;;13.60;99.90;;;;;;5038408;28;25163;-67
2021/10/12 12:27:24;;;;;;;3.00;1.02;;;13.70;99.90;;;;;;5038545;28;25108;-68
2021/10/12 12:30:04;;;;;;;2.92;1.30;;;13.90;99.90;;;;;;5034968;28;25062;-67
2021/10/12 12:32:30;;;;;;;4.55;0.93;;;13.80;99.90;;;;;;5039712;28;25054;-67
2021/10/12 12:35:00;;;;;;;2.28;0.85;;;13.90;99.90;;;;;;5039556;28;25165;-67
2021/10/12 12:37:27;;;;;;;4.25;0.93;;;14.00;99.90;;;;;;5038755;28;25148;-70
2021/10/12 12:39:53;;;;;;;2.08;0.90;;;14.10;99.90;;;;;;5034042;28;25100;-68
2021/10/12 12:42:32;;;;;;;4.07;1.15;;;14.10;99.90;;;;;;5032225;28;25067;-70
2021/10/12 12:45:12;;;;;;;4.53;0.98;;;14.00;99.90;;;;;;5039313;28;25057;-77
2021/10/12 12:47:49;;;;;;;2.92;0.80;;;13.80;99.90;;;;;;5046379;28;25060;-75